Time;durP1;ratioP1;P1;durP2;ratioP2;P2;SDS_P1;SDS_P2;PMS_P1;PMS_P2;Temp;Humidity;BMP_temperature;BMP_pressure;BME280_temperature;BME280_humidity;BME280_pressure;Samples;Min_cycle;Max_cycle;Signal;HPM_P1;HPM_P2
2023/03/11 00:01:28;;;;;;;17.10;11.50;;;;;;;2.35;100.00;98271.70;105800;1259;63442;-72
2023/03/11 00:03:58;;;;;;;16.80;12.60;;;;;;;2.35;100.00;98266.02;105808;1257;62218;-70
2023/03/11 00:06:27;;;;;;;17.30;12.00;;;;;;;2.33;100.00;98262.05;105939;1254;72077;-75
2023/03/11 00:08:55;;;;;;;17.30;12.10;;;;;;;2.36;100.00;98262.07;105883;1254;66825;-78
2023/03/11 00:11:24;;;;;;;17.50;11.90;;;;;;;2.37;100.00;98261.39;105912;1254;72898;-76
2023/03/11 00:13:53;;;;;;;14.60;13.10;;;;;;;2.37;100.00;98256.95;105628;1260;62719;-73
2023/03/11 00:16:22;;;;;;;14.00;10.80;;;;;;;2.41;100.00;98256.25;105880;1253;60267;-77
2023/03/11 00:18:58;;;;;;;16.80;12.70;;;;;;;2.43;100.00;98251.56;105794;1254;73947;-75
2023/03/11 00:21:27;;;;;;;18.10;13.20;;;;;;;2.44;100.00;98243.67;105660;1254;68467;-73
2023/03/11 00:23:59;;;;;;;16.10;11.60;;;;;;;2.45;100.00;98240.52;105746;1254;75335;-75
2023/03/11 00:26:29;;;;;;;21.00;13.30;;;;;;;2.47;100.00;98236.59;105892;1253;61282;-70
2023/03/11 00:28:57;;;;;;;14.90;12.80;;;;;;;2.48;100.00;98232.83;105872;1259;62036;-72
2023/03/11 00:31:27;;;;;;;17.70;12.20;;;;;;;2.47;100.00;98232.48;105817;1257;74027;-71
2023/03/11 00:34:15;;;;;;;18.60;11.80;;;;;;;2.45;100.00;98237.81;105758;1257;69338;-70
2023/03/11 00:36:45;;;;;;;16.00;12.20;;;;;;;2.49;100.00;98234.18;105759;1254;73851;-71
2023/03/11 00:39:14;;;;;;;17.20;12.40;;;;;;;2.48;100.00;98227.36;105873;1254;59728;-71
2023/03/11 00:41:44;;;;;;;20.70;13.20;;;;;;;2.47;100.00;98227.70;105906;1254;61912;-70
2023/03/11 00:44:14;;;;;;;21.90;15.40;;;;;;;2.48;100.00;98225.89;105763;1257;74578;-72
2023/03/11 00:46:42;;;;;;;20.30;13.90;;;;;;;2.51;100.00;98224.83;105935;1257;66779;-73
2023/03/11 00:49:10;;;;;;;18.20;13.20;;;;;;;2.52;100.00;98219.55;105830;1254;72501;-71
2023/03/11 00:51:38;;;;;;;15.70;11.30;;;;;;;2.54;100.00;98213.58;105765;1257;60359;-71
2023/03/11 00:54:08;;;;;;;16.00;12.00;;;;;;;2.53;100.00;98208.31;105570;1260;61927;-71
2023/03/11 00:56:37;;;;;;;16.30;11.70;;;;;;;2.48;100.00;98201.06;105740;1259;72879;-72
2023/03/11 00:59:07;;;;;;;18.90;11.20;;;;;;;2.49;100.00;98194.65;105732;1258;69893;-71
2023/03/11 01:01:37;;;;;;;19.00;12.40;;;;;;;2.53;100.00;98187.98;105779;1254;74400;-71
2023/03/11 01:04:05;;;;;;;20.30;15.40;;;;;;;2.51;100.00;98188.38;105809;1253;61323;-71
2023/03/11 01:06:35;;;;;;;15.60;12.80;;;;;;;2.49;100.00;98178.55;105715;1254;61800;-71
2023/03/11 01:09:12;;;;;;;16.30;14.70;;;;;;;2.50;100.00;98180.33;105746;1254;72204;-73
2023/03/11 01:11:41;;;;;;;13.30;11.30;;;;;;;2.56;100.00;98180.36;105764;1254;69496;-71
2023/03/11 01:14:09;;;;;;;13.20;11.60;;;;;;;2.61;100.00;98175.89;105871;1255;73586;-70
2023/03/11 01:16:38;;;;;;;16.30;11.90;;;;;;;2.60;100.00;98173.80;105867;1253;59736;-70
2023/03/11 01:19:10;;;;;;;17.20;13.90;;;;;;;2.56;100.00;98172.65;105832;1254;61843;-71
2023/03/11 01:21:38;;;;;;;15.60;12.90;;;;;;;2.53;100.00;98167.50;105725;1254;75006;-71
2023/03/11 01:24:07;;;;;;;14.00;11.10;;;;;;;2.53;100.00;98164.84;105737;1257;69149;-72
2023/03/11 01:26:35;;;;;;;14.20;11.70;;;;;;;2.56;100.00;98164.44;105706;1254;74439;-71
2023/03/11 01:29:03;;;;;;;14.40;11.60;;;;;;;2.59;100.00;98162.67;105855;1253;59561;-72
2023/03/11 01:31:32;;;;;;;15.60;13.20;;;;;;;2.59;100.00;98159.44;105717;1257;59644;-72
2023/03/11 01:34:00;;;;;;;16.40;13.20;;;;;;;2.53;100.00;98157.16;105772;1254;72525;-71
2023/03/11 01:36:33;;;;;;;20.40;14.30;;;;;;;2.51;100.00;98160.46;105815;1254;68205;-71
2023/03/11 01:39:01;;;;;;;18.30;15.10;;;;;;;2.45;100.00;98156.25;105685;1254;74128;-71
2023/03/11 01:41:29;;;;;;;13.70;12.30;;;;;;;2.42;100.00;98159.84;105723;1257;61666;-71
2023/03/11 01:43:58;;;;;;;14.40;11.60;;;;;;;2.39;100.00;98153.33;105737;1256;60151;-70
2023/03/11 01:46:36;;;;;;;24.20;11.30;;;;;;;2.35;100.00;98151.27;105916;1257;74592;-71
2023/03/11 01:49:09;;;;;;;23.80;13.90;;;;;;;2.36;100.00;98148.94;105796;1254;68726;-74
2023/03/11 01:51:40;;;;;;;19.10;12.70;;;;;;;2.37;100.00;98142.71;105638;1260;74397;-72
2023/03/11 01:54:11;;;;;;;18.00;12.30;;;;;;;2.38;100.00;98136.58;105806;1256;59622;-71
2023/03/11 01:56:43;;;;;;;16.30;13.30;;;;;;;2.38;100.00;98132.98;105728;1260;60551;-70
2023/03/11 01:59:13;;;;;;;16.00;13.00;;;;;;;2.38;100.00;98133.46;105688;1254;73542;-70
2023/03/11 02:01:52;;;;;;;15.80;13.10;;;;;;;2.39;100.00;98134.54;105440;1266;66923;-74
2023/03/11 02:04:22;;;;;;;17.10;13.30;;;;;;;2.33;100.00;98131.33;106007;1254;74123;-73
2023/03/11 02:06:50;;;;;;;17.50;12.10;;;;;;;2.32;100.00;98129.02;105903;1253;59793;-72
2023/03/11 02:09:23;;;;;;;16.40;11.80;;;;;;;2.33;100.00;98130.12;105838;1253;59673;-74
2023/03/11 02:11:53;;;;;;;16.90;10.90;;;;;;;2.34;100.00;98125.05;105853;1258;72968;-72
2023/03/11 02:14:22;;;;;;;20.80;13.10;;;;;;;2.33;100.00;98123.05;105791;1254;68238;-74
2023/03/11 02:16:56;;;;;;;14.40;10.70;;;;;;;2.30;100.00;98118.66;105847;1255;73391;-74
2023/03/11 02:19:41;;;;;;;14.20;11.70;;;;;;;2.29;100.00;98117.67;105902;1258;60835;-74
2023/03/11 02:22:10;;;;;;;14.30;11.00;;;;;;;2.29;100.00;98114.73;105869;1253;59788;-74
2023/03/11 02:24:49;;;;;;;14.00;11.40;;;;;;;2.34;100.00;98115.71;105893;1256;74671;-73
2023/03/11 02:27:21;;;;;;;18.30;13.10;;;;;;;2.39;100.00;98115.55;105924;1259;68502;-74
2023/03/11 02:29:50;;;;;;;16.90;12.70;;;;;;;2.38;100.00;98110.87;105824;1257;74510;-76
2023/03/11 02:32:19;;;;;;;14.80;12.80;;;;;;;2.34;100.00;98108.91;105838;1257;61971;-73
2023/03/11 02:34:47;;;;;;;18.20;13.40;;;;;;;2.30;100.00;98108.27;105863;1257;60447;-74
2023/03/11 02:37:16;;;;;;;16.40;11.20;;;;;;;2.34;100.00;98101.70;105650;1254;73530;-73
2023/03/11 02:39:51;;;;;;;15.80;12.00;;;;;;;2.36;100.00;98106.56;105754;1258;67538;-75
2023/03/11 02:42:23;;;;;;;18.10;11.20;;;;;;;2.35;100.00;98110.00;105709;1260;71606;-73
2023/03/11 02:45:04;;;;;;;15.50;12.90;;;;;;;2.37;100.00;98111.00;105715;1254;61656;-75
2023/03/11 02:47:32;;;;;;;20.60;13.30;;;;;;;2.36;100.00;98104.34;105609;1259;60546;-77
2023/03/11 02:50:01;;;;;;;13.20;10.90;;;;;;;2.35;100.00;98106.86;105526;1257;74461;-75
2023/03/11 02:52:31;;;;;;;16.60;13.20;;;;;;;2.32;100.00;98101.88;105859;1254;69521;-77
2023/03/11 02:55:00;;;;;;;15.00;12.00;;;;;;;2.30;100.00;98100.83;105645;1253;73571;-74
2023/03/11 02:57:29;;;;;;;18.10;13.00;;;;;;;2.30;100.00;98094.25;105811;1254;61394;-73
2023/03/11 03:00:01;;;;;;;15.30;12.30;;;;;;;2.31;100.00;98092.89;105808;1254;61634;-72
2023/03/11 03:02:29;;;;;;;17.40;13.00;;;;;;;2.28;100.00;98090.59;105769;1254;72924;-73
2023/03/11 03:04:58;;;;;;;19.10;13.40;;;;;;;2.25;100.00;98090.14;105737;1254;69403;-71
2023/03/11 03:07:26;;;;;;;18.30;13.00;;;;;;;2.26;100.00;98092.58;105703;1254;74180;-73
2023/03/11 03:09:55;;;;;;;15.60;12.90;;;;;;;2.28;100.00;98092.46;105732;1254;61126;-72
2023/03/11 03:12:26;;;;;;;21.90;14.30;;;;;;;2.28;100.00;98088.70;105669;1253;61586;-72
2023/03/11 03:14:57;;;;;;;19.80;13.40;;;;;;;2.23;100.00;98092.68;105864;1256;74698;-73
2023/03/11 03:17:25;;;;;;;20.00;13.90;;;;;;;2.19;100.00;98089.21;105870;1257;67555;-72
2023/03/11 03:19:54;;;;;;;20.10;13.40;;;;;;;2.17;100.00;98078.88;105679;1253;73533;-70
2023/03/11 03:22:26;;;;;;;18.70;15.70;;;;;;;2.14;100.00;98071.66;105885;1253;61185;-71
2023/03/11 03:24:55;;;;;;;18.70;13.30;;;;;;;2.14;100.00;98073.25;105821;1254;60622;-71
2023/03/11 03:27:23;;;;;;;18.20;13.50;;;;;;;2.13;100.00;98069.63;105791;1253;74061;-73
2023/03/11 03:29:52;;;;;;;20.10;14.60;;;;;;;2.13;100.00;98064.05;105795;1257;67515;-71
2023/03/11 03:32:21;;;;;;;22.00;15.00;;;;;;;2.10;100.00;98057.33;105706;1258;71517;-72
2023/03/11 03:34:50;;;;;;;19.70;14.50;;;;;;;2.10;100.00;98053.39;105797;1254;62039;-71
2023/03/11 03:37:19;;;;;;;18.20;12.90;;;;;;;2.09;100.00;98048.70;105773;1253;60945;-71
2023/03/11 03:39:48;;;;;;;16.30;13.90;;;;;;;2.14;100.00;98052.47;105749;1254;74637;-71
2023/03/11 03:42:16;;;;;;;18.20;13.10;;;;;;;2.19;100.00;98040.42;105686;1254;68548;-73
2023/03/11 03:44:47;;;;;;;22.10;14.50;;;;;;;2.17;100.00;98042.17;105724;1257;72801;-75
2023/03/11 03:47:15;;;;;;;22.20;14.10;;;;;;;2.16;100.00;98038.88;105659;1255;60546;-73
2023/03/11 03:49:43;;;;;;;22.30;16.50;;;;;;;2.17;100.00;98034.43;105705;1254;61060;-73
2023/03/11 03:52:12;;;;;;;20.70;15.90;;;;;;;2.22;100.00;98029.27;105870;1255;75480;-76
2023/03/11 03:54:41;;;;;;;21.10;13.60;;;;;;;2.23;100.00;98026.43;105661;1253;69790;-73
2023/03/11 03:57:09;;;;;;;19.10;13.50;;;;;;;2.27;100.00;98019.98;105719;1252;72909;-73
2023/03/11 03:59:44;;;;;;;19.40;15.60;;;;;;;2.29;100.00;98013.70;105734;1254;61407;-72
2023/03/11 04:02:12;;;;;;;24.20;18.60;;;;;;;2.24;100.00;98010.27;105715;1253;60463;-73
2023/03/11 04:04:41;;;;;;;21.80;14.70;;;;;;;2.17;100.00;98006.00;105743;1253;73598;-72
2023/03/11 04:07:10;;;;;;;21.60;16.20;;;;;;;2.13;100.00;98006.52;105829;1256;67209;-71
2023/03/11 04:09:40;;;;;;;20.90;15.90;;;;;;;2.11;100.00;97996.08;105776;1253;73154;-70
2023/03/11 04:12:16;;;;;;;22.70;14.80;;;;;;;2.08;100.00;97986.80;105804;1254;60469;-73
2023/03/11 04:14:44;;;;;;;21.70;16.50;;;;;;;2.07;100.00;97983.77;105792;1257;61280;-73
2023/03/11 04:17:19;;;;;;;24.90;15.70;;;;;;;2.03;100.00;97977.95;105753;1255;75369;-74
2023/03/11 04:19:48;;;;;;;25.60;17.00;;;;;;;1.99;100.00;97974.38;106116;1253;69299;-74
2023/03/11 04:22:16;;;;;;;25.00;16.90;;;;;;;1.94;100.00;97971.50;105767;1254;74477;-73
2023/03/11 04:24:46;;;;;;;33.80;20.30;;;;;;;1.91;100.00;97969.90;105749;1253;62157;-74
2023/03/11 04:27:15;;;;;;;32.30;20.30;;;;;;;1.92;100.00;97970.65;105710;1257;61976;-74
2023/03/11 04:29:43;;;;;;;26.80;17.80;;;;;;;1.94;100.00;97963.95;105745;1254;75568;-74
2023/03/11 04:32:12;;;;;;;25.70;17.90;;;;;;;1.96;100.00;97957.35;105857;1254;67565;-74
2023/03/11 04:34:42;;;;;;;26.30;17.60;;;;;;;1.93;100.00;97954.22;105682;1256;71792;-74
2023/03/11 04:37:13;;;;;;;21.40;17.40;;;;;;;1.96;100.00;97944.26;105713;1252;62468;-76
2023/03/11 04:39:42;;;;;;;24.40;20.00;;;;;;;1.96;100.00;97944.06;105889;1253;62432;-75
2023/03/11 04:42:12;;;;;;;23.50;18.70;;;;;;;1.97;100.00;97941.37;105845;1253;75375;-75
2023/03/11 04:44:42;;;;;;;25.90;17.90;;;;;;;1.97;100.00;97937.61;105727;1257;67449;-75
2023/03/11 04:47:16;;;;;;;25.90;18.70;;;;;;;1.96;100.00;97936.21;105762;1254;74460;-75
2023/03/11 04:49:45;;;;;;;23.30;17.40;;;;;;;1.95;100.00;97935.84;105832;1253;62127;-76
2023/03/11 04:52:13;;;;;;;27.20;16.70;;;;;;;1.96;100.00;97933.67;105753;1254;60438;-72
2023/03/11 04:54:43;;;;;;;23.80;17.70;;;;;;;1.98;100.00;97930.90;105511;1259;76009;-75
2023/03/11 04:57:12;;;;;;;23.90;18.20;;;;;;;2.02;100.00;97923.16;105724;1261;69751;-72
2023/03/11 04:59:43;;;;;;;22.40;17.50;;;;;;;2.02;100.00;97925.34;105707;1257;74811;-72
2023/03/11 05:02:12;;;;;;;23.50;16.60;;;;;;;2.01;100.00;97927.78;105729;1254;61804;-74
2023/03/11 05:04:44;;;;;;;20.20;15.30;;;;;;;2.00;100.00;97925.64;105774;1253;60700;-72
2023/03/11 05:07:13;;;;;;;20.90;15.60;;;;;;;2.01;100.00;97922.79;105688;1253;73761;-72
2023/03/11 05:09:43;;;;;;;19.00;15.80;;;;;;;2.02;100.00;97916.59;105754;1259;67407;-71
2023/03/11 05:12:11;;;;;;;23.00;16.50;;;;;;;2.02;100.00;97909.11;105800;1254;74157;-72
2023/03/11 05:14:43;;;;;;;21.20;16.00;;;;;;;2.01;100.00;97908.95;105867;1256;61559;-73
2023/03/11 05:17:13;;;;;;;23.80;18.20;;;;;;;2.02;100.00;97906.15;105866;1254;60730;-71
2023/03/11 05:19:42;;;;;;;19.30;15.70;;;;;;;2.06;100.00;97898.59;105873;1253;72979;-72
2023/03/11 05:22:16;;;;;;;19.80;15.30;;;;;;;2.13;100.00;97889.53;105717;1257;68798;-75
2023/03/11 05:24:45;;;;;;;22.50;16.20;;;;;;;2.22;100.00;97890.64;105710;1253;74458;-75
2023/03/11 05:27:19;;;;;;;25.40;16.70;;;;;;;2.27;100.00;97886.57;105825;1253;60413;-72
2023/03/11 05:29:53;;;;;;;28.30;18.80;;;;;;;2.28;100.00;97873.92;105691;1253;60554;-71
2023/03/11 05:32:21;;;;;;;25.70;16.10;;;;;;;2.31;100.00;97868.51;105705;1253;73669;-70
2023/03/11 05:34:51;;;;;;;23.10;17.20;;;;;;;2.36;100.00;97868.92;105629;1260;69389;-70
2023/03/11 05:37:19;;;;;;;23.40;17.80;;;;;;;2.45;100.00;97869.38;105742;1253;74076;-69
2023/03/11 05:39:51;;;;;;;22.30;18.20;;;;;;;2.51;100.00;97869.10;105732;1256;60511;-73
2023/03/11 05:42:21;;;;;;;24.90;17.90;;;;;;;2.55;100.00;97869.62;105680;1253;61247;-75
2023/03/11 05:44:52;;;;;;;19.90;15.80;;;;;;;2.61;100.00;97866.32;105690;1258;74654;-74
2023/03/11 05:47:21;;;;;;;21.90;16.60;;;;;;;2.68;100.00;97864.29;105833;1258;67273;-71
2023/03/11 05:49:50;;;;;;;20.00;15.40;;;;;;;2.75;100.00;97858.54;105691;1253;72217;-69
2023/03/11 05:52:19;;;;;;;21.40;17.10;;;;;;;2.82;100.00;97862.36;105765;1253;60471;-69
2023/03/11 05:54:50;;;;;;;22.30;17.20;;;;;;;2.90;100.00;97860.98;105484;1253;60467;-70
2023/03/11 05:57:22;;;;;;;19.70;15.50;;;;;;;2.99;100.00;97858.51;105741;1254;73329;-71
2023/03/11 05:59:51;;;;;;;23.70;16.90;;;;;;;3.05;100.00;97853.96;105749;1254;67507;-72
2023/03/11 06:02:20;;;;;;;20.70;16.50;;;;;;;3.12;100.00;97847.35;105723;1253;74482;-72
2023/03/11 06:04:49;;;;;;;22.40;16.90;;;;;;;3.23;100.00;97844.72;105605;1253;60547;-71
2023/03/11 06:07:18;;;;;;;22.00;15.90;;;;;;;3.28;100.00;97846.11;105828;1256;60554;-70
2023/03/11 06:09:49;;;;;;;22.50;16.80;;;;;;;3.31;100.00;97843.02;105877;1253;73562;-74
2023/03/11 06:12:22;;;;;;;19.00;14.50;;;;;;;3.34;100.00;97838.33;105707;1257;68384;-72
2023/03/11 06:15:09;;;;;;;16.20;13.40;;;;;;;3.42;100.00;97837.88;105829;1253;73339;-72
2023/03/11 06:17:38;;;;;;;25.40;18.10;;;;;;;3.50;100.00;97834.67;105674;1253;61856;-76
2023/03/11 06:20:11;;;;;;;21.40;17.10;;;;;;;3.53;100.00;97834.27;105654;1254;62133;-75
2023/03/11 06:22:40;;;;;;;23.70;17.30;;;;;;;3.54;100.00;97836.80;105764;1258;75411;-75
2023/03/11 06:25:14;;;;;;;19.70;16.10;;;;;;;3.59;100.00;97832.38;105795;1253;69192;-73
2023/03/11 06:27:51;;;;;;;18.00;14.20;;;;;;;3.66;100.00;97832.70;106027;1256;72932;-72
2023/03/11 06:30:23;;;;;;;22.10;15.10;;;;;;;3.71;100.00;97828.51;105134;1264;61050;-73
2023/03/11 06:33:04;;;;;;;24.30;17.40;;;;;;;3.77;100.00;97834.63;105428;1260;60319;-71
2023/03/11 06:35:32;;;;;;;23.70;19.60;;;;;;;3.83;100.00;97828.73;105419;1256;74866;-71
2023/03/11 06:38:01;;;;;;;23.00;16.30;;;;;;;3.91;100.00;97835.23;105695;1256;69725;-70
2023/03/11 06:40:29;;;;;;;21.10;17.00;;;;;;;3.95;100.00;97829.63;105420;1261;71406;-72
2023/03/11 06:42:58;;;;;;;21.40;17.20;;;;;;;4.01;100.00;97830.96;105545;1256;61145;-71
2023/03/11 06:45:29;;;;;;;19.40;15.90;;;;;;;4.06;100.00;97825.58;105471;1256;61472;-72
2023/03/11 06:47:58;;;;;;;25.30;15.80;;;;;;;4.15;100.00;97819.80;105576;1256;74104;-72
2023/03/11 06:50:29;;;;;;;23.50;18.80;;;;;;;4.18;100.00;97818.59;105576;1256;69410;-73
2023/03/11 06:53:00;;;;;;;17.80;15.50;;;;;;;4.24;100.00;97805.23;105714;1261;73307;-72
2023/03/11 06:55:30;;;;;;;22.10;17.30;;;;;;;4.27;100.00;97801.59;105465;1256;62697;-73
2023/03/11 06:58:00;;;;;;;26.00;15.60;;;;;;;4.29;100.00;97795.91;105599;1255;61995;-74
2023/03/11 07:00:29;;;;;;;19.90;15.80;;;;;;;4.35;100.00;97788.11;105443;1257;73475;-76
2023/03/11 07:02:59;;;;;;;23.20;17.80;;;;;;;4.44;100.00;97785.09;105627;1256;70164;-72
2023/03/11 07:05:27;;;;;;;22.20;17.80;;;;;;;4.50;100.00;97780.17;105428;1260;73009;-72
2023/03/11 07:08:03;;;;;;;23.30;18.10;;;;;;;4.56;100.00;97770.73;105520;1260;61754;-72
2023/03/11 07:10:41;;;;;;;24.70;17.60;;;;;;;4.60;100.00;97769.59;105444;1261;62233;-72
2023/03/11 07:13:10;;;;;;;24.80;17.10;;;;;;;4.64;100.00;97761.36;105592;1259;75013;-72
2023/03/11 07:15:41;;;;;;;21.00;17.00;;;;;;;4.70;100.00;97759.15;105517;1260;67844;-73
2023/03/11 07:18:14;;;;;;;22.00;17.20;;;;;;;4.77;100.00;97750.50;105420;1256;72405;-74
2023/03/11 07:20:47;;;;;;;19.80;16.30;;;;;;;4.77;100.00;97744.48;105527;1257;62876;-73
2023/03/11 07:23:15;;;;;;;19.40;14.80;;;;;;;4.84;100.00;97744.67;105608;1256;61954;-72
2023/03/11 07:25:50;;;;;;;20.30;16.10;;;;;;;4.91;100.00;97738.63;105431;1256;74012;-73
2023/03/11 07:28:23;;;;;;;24.40;19.40;;;;;;;4.96;100.00;97740.56;105555;1256;67740;-74
2023/03/11 07:30:54;;;;;;;26.50;18.20;;;;;;;5.00;100.00;97741.75;105430;1257;73470;-73
2023/03/11 07:33:24;;;;;;;22.10;16.20;;;;;;;5.04;100.00;97736.23;105353;1256;62768;-70
2023/03/11 07:35:53;;;;;;;21.80;17.50;;;;;;;5.09;100.00;97742.67;105383;1261;60488;-74
2023/03/11 07:38:24;;;;;;;26.10;18.80;;;;;;;5.11;100.00;97739.45;105437;1256;74612;-73
2023/03/11 07:40:59;;;;;;;24.60;18.80;;;;;;;5.11;100.00;97741.95;105454;1260;68416;-77
2023/03/11 07:43:33;;;;;;;24.20;18.00;;;;;;;5.09;100.00;97741.08;105487;1256;74283;-77
2023/03/11 07:46:15;;;;;;;24.70;18.30;;;;;;;5.11;100.00;97736.93;105207;1264;61227;-77
2023/03/11 07:48:47;;;;;;;25.50;17.80;;;;;;;5.18;100.00;97731.25;105426;1256;61668;-75
2023/03/11 07:51:19;;;;;;;25.30;19.50;;;;;;;5.24;100.00;97725.08;105477;1255;75828;-74
2023/03/11 07:53:48;;;;;;;31.10;21.90;;;;;;;5.27;100.00;97720.60;105676;1256;70408;-72
2023/03/11 07:56:18;;;;;;;27.70;22.00;;;;;;;5.32;100.00;97713.11;105606;1256;73294;-74
2023/03/11 07:58:46;;;;;;;29.60;20.70;;;;;;;5.35;100.00;97708.36;105719;1254;62325;-73
2023/03/11 08:01:18;;;;;;;27.70;20.50;;;;;;;5.35;100.00;97701.33;105710;1256;61150;-73
2023/03/11 08:03:48;;;;;;;23.80;19.50;;;;;;;5.39;100.00;97691.31;105633;1259;74631;-73
2023/03/11 08:06:19;;;;;;;21.60;18.30;;;;;;;5.43;100.00;97683.16;105689;1260;67617;-74
2023/03/11 08:08:51;;;;;;;27.30;20.50;;;;;;;5.45;100.00;97676.50;105738;1254;74270;-70
2023/03/11 08:11:21;;;;;;;31.10;22.30;;;;;;;5.44;100.00;97674.41;105697;1255;61867;-67
2023/03/11 08:13:52;;;;;;;26.80;21.60;;;;;;;5.42;100.00;97670.85;105358;1259;60401;-71
2023/03/11 08:16:22;;;;;;;26.20;18.30;;;;;;;5.43;100.00;97666.25;105762;1254;73059;-75
2023/03/11 08:18:51;;;;;;;27.30;19.50;;;;;;;5.43;100.00;97665.83;105622;1254;70190;-74
2023/03/11 08:21:24;;;;;;;27.30;20.00;;;;;;;5.47;100.00;97667.59;105721;1254;73482;-71
2023/03/11 08:23:59;;;;;;;31.40;23.30;;;;;;;5.49;100.00;97653.46;105543;1256;60498;-75
2023/03/11 08:26:29;;;;;;;33.10;22.30;;;;;;;5.44;100.00;97648.73;105614;1260;60544;-74
2023/03/11 08:29:00;;;;;;;32.70;21.70;;;;;;;5.42;100.00;97642.11;105581;1256;74707;-73
2023/03/11 08:31:31;;;;;;;32.20;21.50;;;;;;;5.41;100.00;97637.38;105530;1261;67886;-72
2023/03/11 08:34:06;;;;;;;;;;;;;;;5.40;100.00;97615.90;105612;1260;73560;-73
2023/03/11 08:36:37;;;;;;;30.20;23.50;;;;;;;5.44;100.00;97604.96;105451;1264;60572;-73
2023/03/11 08:39:05;;;;;;;38.80;23.90;;;;;;;5.45;100.00;97597.60;105504;1261;61222;-73
2023/03/11 08:41:34;;;;;;;30.00;21.30;;;;;;;5.41;100.00;97614.29;105540;1256;75300;-73
2023/03/11 08:44:03;;;;;;;35.50;21.70;;;;;;;5.37;100.00;97610.39;105708;1256;68103;-74
2023/03/11 08:46:34;;;;;;;35.10;24.90;;;;;;;5.37;100.00;97610.91;105541;1257;74502;-73
2023/03/11 08:49:04;;;;;;;35.90;25.30;;;;;;;5.41;100.00;97605.55;105618;1256;61473;-72
2023/03/11 08:51:36;;;;;;;36.30;25.00;;;;;;;5.44;100.00;97598.92;105580;1256;60467;-74
2023/03/11 08:54:08;;;;;;;39.20;28.80;;;;;;;5.47;100.00;97588.11;105124;1261;73829;-74
2023/03/11 08:56:38;;;;;;;39.10;25.20;;;;;;;5.47;100.00;97587.73;105421;1256;69181;-70
2023/03/11 08:59:08;;;;;;;38.00;26.40;;;;;;;5.44;100.00;97583.41;105536;1256;73630;-71
2023/03/11 09:01:37;;;;;;;38.50;27.20;;;;;;;5.42;100.00;97589.60;105559;1260;62001;-74
2023/03/11 09:04:07;;;;;;;40.80;29.00;;;;;;;5.42;100.00;97598.44;105724;1260;60877;-74
2023/03/11 09:06:43;;;;;;;35.40;26.90;;;;;;;5.45;100.00;97619.46;105605;1255;73651;-75
2023/03/11 09:09:12;;;;;;;37.40;27.20;;;;;;;5.50;100.00;97609.80;105728;1256;69452;-76
2023/03/11 09:11:41;;;;;;;36.50;26.90;;;;;;;5.51;100.00;97605.55;105519;1256;73290;-79
2023/03/11 09:14:21;;;;;;;38.40;29.40;;;;;;;5.47;100.00;97594.77;105639;1256;62647;-86
2023/03/11 09:16:52;;;;;;;40.00;30.10;;;;;;;5.44;100.00;97596.85;105542;1261;60603;-81
2023/03/11 09:19:20;;;;;;;40.90;29.30;;;;;;;5.45;100.00;97597.81;105754;1257;74066;-78
2023/03/11 09:21:49;;;;;;;45.10;33.30;;;;;;;5.42;100.00;97594.56;105508;1256;67964;-79
2023/03/11 09:24:20;;;;;;;39.30;28.60;;;;;;;5.37;100.00;97588.64;105595;1257;73901;-82
2023/03/11 09:26:51;;;;;;;47.80;32.30;;;;;;;5.37;100.00;97580.34;105740;1256;61994;-77
2023/03/11 09:29:26;;;;;;;43.40;31.10;;;;;;;5.37;100.00;97579.33;105676;1258;61581;-86
2023/03/11 09:31:57;;;;;;;45.60;31.80;;;;;;;5.42;100.00;97570.04;105496;1264;73420;-81
2023/03/11 09:34:28;;;;;;;46.90;32.50;;;;;;;5.48;100.00;97564.21;105429;1256;66762;-83
2023/03/11 09:36:59;;;;;;;47.40;34.50;;;;;;;5.49;100.00;97550.83;105435;1256;73670;-84
2023/03/11 09:39:30;;;;;;;52.50;35.90;;;;;;;5.47;100.00;97542.42;105591;1262;62386;-82
2023/03/11 09:42:24;;;;;;;43.00;30.80;;;;;;;5.43;100.00;97539.55;105659;1263;61609;-79
2023/03/11 09:45:17;;;;;;;43.40;28.90;;;;;;;5.42;100.00;97537.14;105534;1258;75377;-81
2023/03/11 09:48:33;;;;;;;53.60;35.80;;;;;;;5.42;100.00;97531.66;105546;1256;68181;-81
2023/03/11 09:51:18;;;;;;;56.50;35.40;;;;;;;5.39;100.00;97530.86;105720;1258;74744;-84
2023/03/11 09:54:08;;;;;;;45.20;33.40;;;;;;;5.40;100.00;97523.08;106049;1262;60719;-83
2023/03/11 09:56:47;;;;;;;51.40;36.00;;;;;;;5.39;100.00;97515.98;106325;1256;61813;-79
2023/03/11 09:59:27;;;;;;;53.80;36.70;;;;;;;5.40;100.00;97507.09;105862;1256;73489;-84
2023/03/11 10:02:03;;;;;;;49.50;33.90;;;;;;;5.44;100.00;97501.69;105832;1257;69638;-86
2023/03/11 10:05:13;;;;;;;56.70;38.50;;;;;;;5.48;100.00;97497.14;105549;1258;72419;-86
2023/03/11 10:08:31;;;;;;;;;;;;;;;5.50;100.00;97484.68;105827;1256;62583;-86
2023/03/11 10:11:37;;;;;;;44.60;32.00;;;;;;;5.52;100.00;97467.71;105688;1266;61850;-86
2023/03/11 10:14:42;;;;;;;53.20;35.80;;;;;;;5.50;100.00;97448.36;105736;1260;74253;-85
2023/03/11 10:17:45;;;;;;;43.40;32.20;;;;;;;5.42;100.00;97429.52;106110;1257;70438;-84
2023/03/11 10:20:57;;;;;;;44.20;29.30;;;;;;;5.42;100.00;97443.28;105754;1256;73111;-82
2023/03/11 10:23:36;;;;;;;46.20;31.90;;;;;;;5.33;100.00;97445.23;105795;1261;62051;-82
2023/03/11 10:26:20;;;;;;;43.00;30.00;;;;;;;5.33;100.00;97432.80;105823;1261;60428;-85
2023/03/11 10:28:53;;;;;;;36.80;27.20;;;;;;;5.38;100.00;97432.80;105574;1256;75716;-87
2023/03/11 10:31:56;;;;;;;40.00;29.10;;;;;;;5.45;100.00;97443.69;105521;1256;69296;-84
2023/03/11 10:34:31;;;;;;;41.00;27.80;;;;;;;5.51;100.00;97423.09;105103;1262;74038;-84
2023/03/11 10:37:11;;;;;;;37.90;26.50;;;;;;;5.56;100.00;97413.38;105620;1261;61526;-82
2023/03/11 10:39:46;;;;;;;40.60;29.30;;;;;;;5.59;100.00;97404.14;105600;1256;60532;-85
2023/03/11 10:42:26;;;;;;;30.90;23.90;;;;;;;5.61;100.00;97401.19;105663;1256;72413;-84
2023/03/11 10:44:54;;;;;;;37.80;23.90;;;;;;;5.63;100.00;97407.27;105640;1258;67279;-81
2023/03/11 10:47:24;;;;;;;33.50;24.00;;;;;;;5.58;100.00;97407.23;105826;1254;74038;-82
2023/03/11 10:49:53;;;;;;;38.90;28.70;;;;;;;5.53;100.00;97408.80;105448;1262;61487;-77
2023/03/11 10:52:28;;;;;;;;;;;;;;;5.45;100.00;97406.38;105584;1256;61815;-78
2023/03/11 10:55:06;;;;;;;31.30;23.40;;;;;;;5.38;100.00;97402.56;105612;1256;74618;-77
2023/03/11 10:57:38;;;;;;;;;;;;;;;5.35;100.00;97396.60;105778;1254;69183;-77
2023/03/11 11:00:15;;;;;;;32.70;24.50;;;;;;;5.34;100.00;97398.10;105751;1256;74886;-78
2023/03/11 11:02:58;;;;;;;42.60;29.60;;;;;;;5.34;100.00;97393.14;105766;1256;62024;-79
2023/03/11 11:05:35;;;;;;;36.70;25.80;;;;;;;5.32;100.00;97389.22;105751;1257;60895;-78
2023/03/11 11:08:20;;;;;;;40.20;29.60;;;;;;;5.33;100.00;97383.23;105768;1263;74467;-79
2023/03/11 11:10:55;;;;;;;35.80;29.20;;;;;;;5.32;100.00;97372.05;105701;1254;69251;-80
2023/03/11 11:13:28;;;;;;;33.00;25.20;;;;;;;5.35;100.00;97371.34;105456;1261;72213;-81
2023/03/11 11:15:59;;;;;;;34.30;25.40;;;;;;;5.40;100.00;97367.55;105620;1261;60646;-79
2023/03/11 11:19:12;;;;;;;39.50;28.30;;;;;;;5.44;100.00;97358.88;105863;1256;60833;-81
2023/03/11 11:21:48;;;;;;;39.20;28.70;;;;;;;5.41;100.00;97345.53;105839;1260;74880;-81
2023/03/11 11:24:33;;;;;;;37.00;27.60;;;;;;;5.39;100.00;97336.68;105651;1258;68758;-79
2023/03/11 11:27:19;;;;;;;31.90;22.90;;;;;;;5.38;100.00;97325.91;106025;1255;74169;-78
2023/03/11 11:30:23;;;;;;;35.90;24.30;;;;;;;5.43;100.00;97321.84;105760;1256;62619;-82
2023/03/11 11:33:21;;;;;;;30.10;24.60;;;;;;;5.53;100.00;97316.66;105643;1256;62122;-86
2023/03/11 11:35:54;;;;;;;35.50;26.10;;;;;;;5.59;100.00;97304.64;106297;1261;74386;-86